Time;durP1;ratioP1;P1;durP2;ratioP2;P2;SDS_P1;SDS_P2;PMS_P1;PMS_P2;Temp;Humidity;BMP_temperature;BMP_pressure;BME280_temperature;BME280_humidity;BME280_pressure;Samples;Min_cycle;Max_cycle;Signal;HPM_P1;HPM_P2
2021/10/14 00:00:19;;;;;;;;;65.50;50.00;;;;;11.61;68.18;102505.00;5000753;28;45298;-63
2021/10/14 00:02:45;;;;;;;;;67.50;52.00;;;;;11.58;68.57;102505.03;5001095;28;45496;-64
2021/10/14 00:05:10;;;;;;;;;62.50;48.75;;;;;11.54;69.23;102504.19;5000799;28;45406;-63
2021/10/14 00:07:36;;;;;;;;;71.75;55.25;;;;;11.53;69.33;102501.56;5001164;28;45318;-64
2021/10/14 00:10:04;;;;;;;;;64.00;49.00;;;;;11.49;69.25;102495.53;5001093;28;45360;-63
2021/10/14 00:12:29;;;;;;;;;63.00;50.25;;;;;11.50;69.10;102499.00;4992263;28;45380;-63
2021/10/14 00:14:54;;;;;;;;;61.67;48.67;;;;;11.48;69.19;102508.53;4998760;28;46015;-63
2021/10/14 00:17:20;;;;;;;;;72.00;56.00;;;;;11.45;71.13;102499.00;4995302;28;45618;-63
2021/10/14 00:19:45;;;;;;;;;71.00;55.50;;;;;11.41;71.08;102502.50;4993670;28;45826;-63
2021/10/14 00:22:10;;;;;;;;;82.25;59.75;;;;;11.39;71.66;102503.34;4998389;28;45346;-64
2021/10/14 00:24:36;;;;;;;;;78.50;57.75;;;;;11.36;71.88;102499.03;4995027;28;46186;-63
2021/10/14 00:27:01;;;;;;;;;78.67;58.33;;;;;11.35;72.66;102499.03;4998422;28;45546;-64
2021/10/14 00:29:27;;;;;;;;;74.00;53.75;;;;;11.30;73.38;102499.03;4998330;28;45357;-63
2021/10/14 00:31:52;;;;;;;;;77.33;55.67;;;;;11.26;73.11;102508.59;5000563;28;45598;-63
2021/10/14 00:34:17;;;;;;;;;76.33;54.33;;;;;11.26;72.70;102505.13;4998066;28;45593;-63
2021/10/14 00:36:42;;;;;;;;;65.67;52.33;;;;;11.25;73.13;102506.00;4997694;28;45484;-63
2021/10/14 00:39:08;;;;;;;;;68.75;55.00;;;;;11.21;73.63;102502.53;4998512;28;45411;-63
2021/10/14 00:41:33;;;;;;;;;72.50;54.50;;;;;11.19;73.74;102500.78;4998244;28;45344;-65
2021/10/14 00:43:59;;;;;;;;;68.50;52.50;;;;;11.16;73.25;102501.66;4998140;28;46267;-64
2021/10/14 00:46:25;;;;;;;;;68.50;50.50;;;;;11.16;73.39;102501.66;4997883;28;45447;-63
2021/10/14 00:48:51;;;;;;;;;67.50;51.50;;;;;11.16;73.05;102501.66;4999262;28;45344;-62
2021/10/14 00:51:17;;;;;;;;;65.25;48.75;;;;;11.14;72.87;102503.41;5000235;28;45335;-61
2021/10/14 00:53:42;;;;;;;;;63.75;48.50;;;;;11.13;73.14;102499.06;5000618;28;45428;-61
2021/10/14 00:56:08;;;;;;;;;58.75;46.00;;;;;11.13;72.97;102496.47;5000281;28;45369;-62
2021/10/14 00:58:35;;;;;;;;;66.25;49.25;;;;;11.12;73.15;102502.53;5000750;28;45343;-64
2021/10/14 01:01:02;;;;;;;;;64.75;50.50;;;;;11.09;72.86;102492.16;5000102;28;45509;-64
2021/10/14 01:03:28;;;;;;;;;63.75;47.25;;;;;11.07;72.46;102487.81;5000213;28;45243;-64
2021/10/14 01:05:53;;;;;;;;;63.00;47.00;;;;;11.04;72.63;102490.44;5000276;28;45699;-64
2021/10/14 01:08:19;;;;;;;;;55.00;45.75;;;;;11.03;72.91;102489.56;5000555;28;45602;-64
2021/10/14 01:10:44;;;;;;;;;58.75;49.00;;;;;11.01;72.90;102486.06;5000360;28;45764;-64
2021/10/14 01:13:10;;;;;;;;;58.00;48.00;;;;;11.00;72.46;102488.66;5000091;28;45255;-64
2021/10/14 01:15:35;;;;;;;;;59.50;49.00;;;;;10.97;72.99;102481.75;4999588;28;45373;-64
2021/10/14 01:18:01;;;;;;;;;62.25;46.50;;;;;10.95;72.71;102484.34;4993429;28;45334;-64
2021/10/14 01:20:27;;;;;;;;;60.25;47.25;;;;;10.93;73.45;102473.09;5000151;28;45376;-63
2021/10/14 01:22:53;;;;;;;;;55.50;43.75;;;;;10.91;72.89;102472.22;4996122;28;45317;-63
2021/10/14 01:25:19;;;;;;;;;61.00;44.50;;;;;10.91;73.08;102469.63;4996905;28;45837;-64
2021/10/14 01:27:44;;;;;;;;;57.00;44.00;;;;;10.89;74.49;102476.56;4999095;28;45308;-62
2021/10/14 01:30:11;;;;;;;;;54.50;44.75;;;;;10.86;73.64;102475.69;4999726;28;45374;-62
2021/10/14 01:32:37;;;;;;;;;57.50;44.75;;;;;10.82;75.04;102474.84;4999917;28;46243;-62
2021/10/14 01:35:03;;;;;;;;;53.50;42.00;;;;;10.78;74.53;102472.22;4999584;28;45301;-61
2021/10/14 01:37:29;;;;;;;;;58.75;45.25;;;;;10.77;74.99;102468.75;4999945;28;45251;-61
2021/10/14 01:39:55;;;;;;;;;58.50;46.50;;;;;10.73;75.30;102476.56;4999650;28;45215;-61
2021/10/14 01:42:20;;;;;;;;;59.00;46.25;;;;;10.69;76.27;102475.72;4999608;28;45556;-62
2021/10/14 01:44:45;;;;;;;;;60.50;48.00;;;;;10.65;75.89;102472.25;4999312;28;45313;-61
2021/10/14 01:47:11;;;;;;;;;57.75;45.25;;;;;10.64;76.39;102472.25;4999671;28;45266;-61
2021/10/14 01:49:36;;;;;;;;;55.00;45.25;;;;;10.59;76.61;102469.63;4999396;28;45305;-61
2021/10/14 01:52:02;;;;;;;;;57.75;46.50;;;;;10.58;75.97;102467.88;4999621;28;46252;-61
2021/10/14 01:54:27;;;;;;;;;66.50;50.75;;;;;10.57;75.88;102467.91;4999355;28;45258;-63
2021/10/14 01:56:52;;;;;;;;;67.75;53.00;;;;;10.56;75.65;102455.75;4999716;28;45424;-63
2021/10/14 01:59:18;;;;;;;;;70.67;51.67;;;;;10.56;76.25;102460.97;4999192;28;45336;-62
2021/10/14 02:01:43;;;;;;;;;63.00;49.00;;;;;10.54;75.66;102455.75;4999251;28;45976;-61
2021/10/14 02:04:08;;;;;;;;;65.50;49.00;;;;;10.52;76.14;102449.69;4999149;28;45436;-62
2021/10/14 02:06:34;;;;;;;;;56.25;45.25;;;;;10.52;75.83;102454.91;4999094;28;45260;-62
2021/10/14 02:08:59;;;;;;;;;56.00;44.25;;;;;10.49;76.13;102454.03;4998095;28;45373;-61
2021/10/14 02:11:24;;;;;;;;;63.00;45.67;;;;;10.48;76.11;102447.97;4996899;28;46101;-61
2021/10/14 02:13:50;;;;;;;;;63.50;51.00;;;;;10.47;76.20;102448.84;4996534;28;45372;-61
2021/10/14 02:16:15;;;;;;;;;65.00;49.50;;;;;10.46;76.09;102447.13;4998243;28;45622;-62
2021/10/14 02:18:41;;;;;;;;;63.00;47.75;;;;;10.46;76.38;102438.44;4988673;28;45518;-61
2021/10/14 02:21:06;;;;;;;;;62.25;48.25;;;;;10.45;76.11;102447.97;4996758;28;45993;-61
2021/10/14 02:23:31;;;;;;;;;64.00;47.50;;;;;10.45;76.34;102434.97;4991371;28;45342;-62
2021/10/14 02:25:57;;;;;;;;;60.75;46.25;;;;;10.44;76.27;102441.06;4998669;28;45227;-62
2021/10/14 02:28:22;;;;;;;;;53.50;40.25;;;;;10.44;75.91;102445.38;4997406;28;45812;-61
2021/10/14 02:30:47;;;;;;;;;55.25;42.00;;;;;10.42;75.98;102440.19;4996440;28;46252;-61
2021/10/14 02:33:13;;;;;;;;;56.00;42.25;;;;;10.41;76.12;102441.06;4996471;28;45326;-61
2021/10/14 02:35:38;;;;;;;;;54.50;43.00;;;;;10.41;76.13;102432.34;4996745;28;45493;-62
2021/10/14 02:38:03;;;;;;;;;50.75;42.00;;;;;10.42;76.00;102442.78;4996238;28;45415;-62
2021/10/14 02:40:29;;;;;;;;;71.00;52.25;;;;;10.38;76.96;102446.22;5000212;28;45521;-62
2021/10/14 02:42:54;;;;;;;;;51.75;41.25;;;;;10.34;77.57;102441.91;5000749;28;45408;-62
2021/10/14 02:45:20;;;;;;;;;49.75;41.50;;;;;10.28;77.59;102442.75;5002403;28;45301;-61
2021/10/14 02:47:45;;;;;;;;;51.25;38.75;;;;;10.28;77.00;102447.09;5001471;28;45353;-61
2021/10/14 02:50:10;;;;;;;;;47.75;39.75;;;;;10.27;77.28;102448.81;5001519;28;46305;-61
2021/10/14 02:52:36;;;;;;;;;47.25;37.00;;;;;10.26;77.00;102441.03;4983766;28;45759;-61
2021/10/14 02:55:01;;;;;;;;;45.50;37.00;;;;;10.25;77.67;102439.31;4999141;28;45364;-61
2021/10/14 02:57:27;;;;;;;;;42.75;35.75;;;;;10.23;77.34;102448.81;5002225;28;45345;-61
2021/10/14 02:59:52;;;;;;;;;63.50;48.00;;;;;10.21;78.44;102440.13;5002102;28;45313;-61
2021/10/14 03:02:17;;;;;;;;;48.33;41.33;;;;;10.19;77.97;102434.03;5001858;28;45383;-60
2021/10/14 03:04:43;;;;;;;;;53.00;42.00;;;;;10.15;78.74;102442.69;5002458;28;45531;-61
2021/10/14 03:07:08;;;;;;;;;47.75;39.75;;;;;10.09;78.07;102433.19;5002322;28;45280;-61
2021/10/14 03:09:34;;;;;;;;;49.25;38.75;;;;;10.07;78.00;102442.69;5002438;28;46109;-61
2021/10/14 03:11:59;;;;;;;;;54.00;37.75;;;;;10.06;78.73;102434.03;5002151;28;45308;-61
2021/10/14 03:14:24;;;;;;;;;50.50;38.75;;;;;10.05;77.91;102440.09;5002303;28;45913;-60
2021/10/14 03:16:50;;;;;;;;;46.75;37.50;;;;;10.04;78.05;102440.97;5002818;28;45258;-61
2021/10/14 03:19:15;;;;;;;;;53.75;38.25;;;;;10.01;78.34;102435.78;4994629;28;45448;-61
2021/10/14 03:21:40;;;;;;;;;41.00;36.50;;;;;9.99;78.44;102431.41;5002152;28;45281;-61
2021/10/14 03:24:06;;;;;;;;;48.00;37.25;;;;;9.98;78.62;102434.88;4998979;28;45569;-60
2021/10/14 03:26:31;;;;;;;;;46.50;36.75;;;;;9.97;78.48;102427.94;4999358;28;45257;-61
2021/10/14 03:28:57;;;;;;;;;52.75;37.75;;;;;9.96;78.62;102432.28;5001657;28;46064;-61
2021/10/14 03:31:22;;;;;;;;;43.25;35.25;;;;;9.98;78.84;102443.53;5001558;28;45331;-61
2021/10/14 03:33:47;;;;;;;;;34.25;28.75;;;;;9.96;78.49;102441.81;5002051;28;45237;-61
2021/10/14 03:36:13;;;;;;;;;35.75;30.25;;;;;9.98;78.56;102446.13;5001550;28;45492;-62
2021/10/14 03:38:38;;;;;;;;;44.75;35.75;;;;;10.00;78.00;102447.00;5001892;28;45209;-61
2021/10/14 03:41:04;;;;;;;;;43.25;35.25;;;;;10.01;78.80;102447.88;5001664;28;45228;-62
2021/10/14 03:43:29;;;;;;;;;43.25;36.25;;;;;10.01;78.91;102453.06;5002087;28;45728;-63
2021/10/14 03:45:55;;;;;;;;;39.50;34.25;;;;;10.01;78.79;102453.06;5001287;28;45254;-62
2021/10/14 03:48:20;;;;;;;;;43.75;35.50;;;;;9.98;79.04;102451.31;5001235;28;45317;-62
2021/10/14 03:50:46;;;;;;;;;38.75;30.75;;;;;9.95;79.14;102451.31;5000523;28;45308;-62
2021/10/14 03:53:12;;;;;;;;;37.25;33.50;;;;;9.91;78.93;102452.19;5001827;28;45250;-64
2021/10/14 03:55:37;;;;;;;;;30.25;25.25;;;;;9.88;78.82;102446.97;5001298;28;45562;-62
2021/10/14 03:58:03;;;;;;;;;27.50;27.25;;;;;9.83;79.60;102451.31;5001723;28;45325;-63
2021/10/14 04:00:28;;;;;;;;;32.75;28.25;;;;;9.76;79.26;102446.94;5000968;28;45321;-63
2021/10/14 04:02:54;;;;;;;;;33.25;26.50;;;;;9.72;79.88;102451.25;5001612;28;45735;-63
2021/10/14 04:05:19;;;;;;;;;34.50;28.50;;;;;9.70;80.14;102450.38;5001205;28;45451;-64
2021/10/14 04:07:44;;;;;;;;;34.25;28.00;;;;;9.70;80.36;102457.31;5001554;28;45335;-64
2021/10/14 04:10:10;;;;;;;;;29.25;28.00;;;;;9.70;79.98;102454.72;5001080;28;45225;-67
2021/10/14 04:12:36;;;;;;;;;32.00;28.00;;;;;9.72;80.07;102455.59;5001276;28;45373;-62
2021/10/14 04:15:02;;;;;;;;;33.25;29.00;;;;;9.73;80.81;102462.50;5000492;28;45321;-63
2021/10/14 04:17:27;;;;;;;;;33.75;29.00;;;;;9.75;79.91;102458.19;4996718;28;47189;-63
2021/10/14 04:19:52;;;;;;;;;36.25;31.00;;;;;9.75;80.83;102458.19;4997707;28;45561;-63
2021/10/14 04:22:19;;;;;;;;;39.50;31.75;;;;;9.75;80.56;102455.59;5001032;28;45419;-62
2021/10/14 04:24:45;;;;;;;;;44.25;35.75;;;;;9.75;80.73;102463.38;4997540;28;45381;-65
2021/10/14 04:27:11;;;;;;;;;39.25;32.00;;;;;9.75;80.19;102460.78;5000978;28;46472;-64
2021/10/14 04:29:36;;;;;;;;;40.50;31.75;;;;;9.75;80.63;102458.19;4998472;28;45328;-64
2021/10/14 04:32:07;;;;;;;;;52.00;36.50;;;;;9.74;80.33;102459.91;5000976;28;45334;-66
2021/10/14 04:34:33;;;;;;;;;41.00;35.50;;;;;9.74;80.30;102454.72;5000229;28;45496;-62
2021/10/14 04:36:58;;;;;;;;;50.00;37.50;;;;;9.74;80.37;102457.31;5000513;28;46078;-61
2021/10/14 04:39:24;;;;;;;;;43.00;37.75;;;;;9.75;80.97;102458.19;5000491;28;45236;-60
2021/10/14 04:41:50;;;;;;;;;35.25;30.50;;;;;9.74;80.67;102453.84;5001107;28;45179;-62
2021/10/14 04:44:16;;;;;;;;;29.25;28.75;;;;;9.72;80.98;102459.03;5000396;28;45286;-62
2021/10/14 04:46:41;;;;;;;;;46.75;35.50;;;;;9.70;81.71;102462.50;5000425;28;45458;-61
2021/10/14 04:49:06;;;;;;;;;37.75;34.00;;;;;9.69;81.44;102469.41;4999840;28;45350;-63
2021/10/14 04:51:32;;;;;;;;;42.75;34.25;;;;;9.69;81.73;102466.81;4999911;28;45476;-62
2021/10/14 04:53:57;;;;;;;;;36.75;34.25;;;;;9.70;81.42;102468.56;5000152;28;45243;-65
2021/10/14 04:56:23;;;;;;;;;50.25;41.00;;;;;9.70;81.31;102459.91;5000175;28;45573;-64
2021/10/14 04:58:48;;;;;;;;;41.50;37.00;;;;;9.71;81.30;102461.63;4999761;28;45321;-66
2021/10/14 05:01:13;;;;;;;;;56.25;40.50;;;;;9.70;81.55;102463.38;4999854;28;45630;-68
2021/10/14 05:03:39;;;;;;;;;50.25;39.25;;;;;9.72;81.18;102464.25;4998239;28;45467;-68
2021/10/14 05:06:04;;;;;;;;;49.50;37.00;;;;;9.73;81.33;102460.78;4998670;28;46088;-69
2021/10/14 05:08:29;;;;;;;;;35.25;32.00;;;;;9.72;81.57;102452.97;4998494;28;45641;-69
2021/10/14 05:10:55;;;;;;;;;49.25;38.25;;;;;9.71;80.89;102457.31;4998952;28;45475;-68
2021/10/14 05:13:20;;;;;;;;;40.50;35.75;;;;;9.67;81.31;102454.72;4999242;28;45286;-68
2021/10/14 05:15:45;;;;;;;;;40.75;37.00;;;;;9.65;81.56;102457.31;4999348;28;45562;-68
2021/10/14 05:18:11;;;;;;;;;37.50;31.25;;;;;9.64;81.41;102459.88;4992880;28;45405;-68
2021/10/14 05:20:36;;;;;;;;;41.00;37.50;;;;;9.60;82.25;102464.19;4999943;28;45230;-68
2021/10/14 05:23:02;;;;;;;;;45.50;37.75;;;;;9.56;82.51;102459.84;4997462;28;45506;-69
2021/10/14 05:25:27;;;;;;;;;35.00;31.75;;;;;9.56;82.11;102464.16;4997240;28;45221;-68
2021/10/14 05:27:53;;;;;;;;;39.00;36.00;;;;;9.56;82.41;102467.63;4999335;28;45262;-68
2021/10/14 05:30:19;;;;;;;;;35.00;32.50;;;;;9.53;81.87;102462.44;4999249;28;45222;-69
2021/10/14 05:32:45;;;;;;;;;40.25;30.75;;;;;9.54;82.49;102473.69;4997156;28;45859;-69
2021/10/14 05:35:11;;;;;;;;;38.50;34.75;;;;;9.51;82.27;102468.47;4999243;28;46007;-66
2021/10/14 05:37:36;;;;;;;;;37.50;32.75;;;;;9.50;82.06;102470.19;4998628;28;45424;-67
2021/10/14 05:40:03;;;;;;;;;32.75;30.00;;;;;9.50;82.10;102467.59;4998584;28;45340;-70
2021/10/14 05:42:29;;;;;;;;;39.25;32.25;;;;;9.49;82.10;102475.38;4999450;28;45461;-71
2021/10/14 05:44:54;;;;;;;;;40.00;33.25;;;;;9.44;82.15;102468.44;4999145;28;46152;-67
2021/10/14 05:47:20;;;;;;;;;48.75;37.50;;;;;9.39;82.25;102462.34;4999330;28;45440;-65
2021/10/14 05:49:45;;;;;;;;;43.50;35.25;;;;;9.41;82.70;102467.53;4999520;28;45576;-71
2021/10/14 05:52:10;;;;;;;;;37.75;35.25;;;;;9.43;82.51;102464.13;4999658;28;45277;-70
2021/10/14 05:54:36;;;;;;;;;44.00;36.50;;;;;9.49;82.91;102465.88;4999507;28;46011;-71
2021/10/14 05:57:01;;;;;;;;;38.75;34.00;;;;;9.48;82.35;102464.13;5000037;28;45209;-70
2021/10/14 05:59:26;;;;;;;;;42.25;34.00;;;;;9.51;82.64;102468.47;5000261;28;45254;-67
2021/10/14 06:01:52;;;;;;;;;45.25;37.75;;;;;9.53;81.98;102461.56;4999818;28;45560;-67
2021/10/14 06:04:17;;;;;;;;;50.25;40.00;;;;;9.53;81.93;102458.97;4999060;28;46096;-68
2021/10/14 06:06:42;;;;;;;;;47.75;37.75;;;;;9.53;82.28;102454.63;4998724;28;45280;-69
2021/10/14 06:09:08;;;;;;;;;33.75;33.50;;;;;9.53;82.17;102452.03;4999767;28;45170;-67
2021/10/14 06:11:33;;;;;;;;;34.25;31.50;;;;;9.52;82.70;102457.22;4999012;28;45251;-66
2021/10/14 06:13:59;;;;;;;;;44.25;37.00;;;;;9.52;82.65;102460.69;5002344;28;46147;-67
2021/10/14 06:16:24;;;;;;;;;37.50;32.00;;;;;9.52;82.25;102455.50;5006754;28;45250;-65
2021/10/14 06:18:50;;;;;;;;;40.75;34.25;;;;;9.54;82.39;102460.69;4998072;28;45909;-71
2021/10/14 06:21:15;;;;;;;;;45.50;36.75;;;;;9.55;82.25;102455.50;4987029;28;45267;-74
2021/10/14 06:23:40;;;;;;;;;38.75;31.75;;;;;9.58;82.55;102455.53;4987327;28;46153;-75
2021/10/14 06:26:06;;;;;;;;;45.00;36.50;;;;;9.59;82.58;102461.56;4987511;28;45317;-69
2021/10/14 06:28:31;;;;;;;;;40.50;31.00;;;;;9.60;81.88;102455.53;5005653;28;45817;-69
2021/10/14 06:30:57;;;;;;;;;50.25;36.75;;;;;9.63;82.14;102463.34;5005339;28;45476;-69
2021/10/14 06:33:22;;;;;;;;;43.50;35.00;;;;;9.65;82.04;102466.81;5005207;28;46110;-70
2021/10/14 06:35:48;;;;;;;;;45.75;34.50;;;;;9.69;82.19;102458.16;5002403;28;45408;-70
2021/10/14 06:38:13;;;;;;;;;52.00;35.00;;;;;9.72;81.70;102456.44;5005146;28;45400;-70
2021/10/14 06:40:39;;;;;;;;;41.25;35.00;;;;;9.74;81.55;102462.50;5005354;28;45424;-68
2021/10/14 06:43:04;;;;;;;;;43.25;37.00;;;;;9.77;82.12;102459.91;5005108;28;46139;-68
2021/10/14 06:45:29;;;;;;;;;41.75;35.00;;;;;9.79;81.53;102457.31;4987016;28;45382;-69
2021/10/14 06:47:55;;;;;;;;;44.75;33.25;;;;;9.82;81.84;102459.09;5004863;28;45505;-69
2021/10/14 06:50:20;;;;;;;;;35.00;31.00;;;;;9.86;81.90;102466.03;5005039;28;45502;-69
2021/10/14 06:52:46;;;;;;;;;44.50;36.25;;;;;9.88;81.64;102452.19;5005119;28;45377;-71
2021/10/14 06:55:11;;;;;;;;;55.00;37.75;;;;;9.93;81.60;102462.56;5004807;28;45301;-72
2021/10/14 06:57:37;;;;;;;;;51.00;36.50;;;;;9.98;80.98;102466.03;5004842;28;45322;-71
2021/10/14 07:00:05;;;;;;;;;51.25;36.75;;;;;10.03;80.92;102466.94;5004961;28;45400;-69
2021/10/14 07:02:30;;;;;;;;;53.75;39.00;;;;;10.06;80.94;102465.22;5005091;28;45279;-70
2021/10/14 07:04:57;;;;;;;;;55.50;41.25;;;;;10.10;80.85;102452.22;5004653;28;45356;-71
2021/10/14 07:07:22;;;;;;;;;44.00;36.25;;;;;10.18;80.39;102453.09;5005454;28;45326;-70
2021/10/14 07:09:47;;;;;;;;;53.00;37.25;;;;;10.23;80.96;102454.03;5005011;28;45461;-69
2021/10/14 07:12:13;;;;;;;;;55.00;40.25;;;;;10.26;80.01;102462.69;5004641;28;46079;-68
2021/10/14 07:14:41;;;;;;;;;55.25;40.25;;;;;10.34;80.00;102457.47;5003966;28;45306;-69
2021/10/14 07:17:07;;;;;;;;;50.00;39.75;;;;;10.37;79.79;102457.47;5003710;28;45410;-71
2021/10/14 07:19:32;;;;;;;;;50.25;39.75;;;;;10.45;79.98;102453.19;4999576;28;45556;-69
2021/10/14 07:21:57;;;;;;;;;44.25;37.75;;;;;10.53;79.28;102447.97;5004929;28;45302;-69
2021/10/14 07:24:24;;;;;;;;;50.00;38.25;;;;;10.58;79.49;102446.22;4999996;28;45229;-69
2021/10/14 07:26:50;;;;;;;;;46.25;38.00;;;;;10.66;79.25;102447.97;5000558;28;45348;-67
2021/10/14 07:29:17;;;;;;;;;51.75;38.50;;;;;10.75;79.22;102454.88;5000875;28;45151;-67
2021/10/14 07:31:42;;;;;;;;;49.50;39.50;;;;;10.83;79.21;102452.31;5000913;28;47438;-68
2021/10/14 07:34:08;;;;;;;;;53.50;39.00;;;;;10.93;78.55;102461.81;5000385;28;45477;-72
2021/10/14 07:36:33;;;;;;;;;57.50;41.50;;;;;11.02;78.30;102454.00;4998103;28;45563;-70
2021/10/14 07:39:00;;;;;;;;;53.50;39.50;;;;;11.11;78.48;102456.56;4993404;28;45302;-68
2021/10/14 07:41:25;;;;;;;;;50.75;39.75;;;;;11.21;77.96;102453.09;4998603;28;47075;-69
2021/10/14 07:43:50;;;;;;;;;53.75;40.75;;;;;11.30;77.50;102456.53;4997146;28;45293;-68
2021/10/14 07:46:16;;;;;;;;;47.25;38.50;;;;;11.36;77.67;102459.97;4973763;28;45311;-69
2021/10/14 07:48:41;;;;;;;;;54.50;42.25;;;;;11.45;77.05;102446.06;4993899;28;45174;-68
2021/10/14 07:51:08;;;;;;;;;43.75;37.25;;;;;11.49;77.06;102448.66;4997031;28;46173;-69
2021/10/14 07:53:33;;;;;;;;;52.00;39.00;;;;;11.57;76.54;102453.81;4975942;28;45432;-68
2021/10/14 07:55:59;;;;;;;;;49.75;37.75;;;;;11.63;76.77;102448.59;5001082;28;45416;-69
2021/10/14 07:58:24;;;;;;;;;53.75;42.50;;;;;11.73;77.16;102446.81;5001209;28;45531;-68
2021/10/14 08:00:49;;;;;;;;;54.00;42.50;;;;;11.83;76.43;102452.00;5000755;28;45330;-70
2021/10/14 08:03:15;;;;;;;;;53.75;38.25;;;;;11.95;76.01;102450.19;5001006;28;45367;-69
2021/10/14 08:05:43;;;;;;;;;58.00;41.75;;;;;11.97;75.75;102453.66;5001068;28;45210;-68
2021/10/14 08:08:09;;;;;;;;;58.00;45.00;;;;;12.03;75.83;102446.69;5001019;28;45322;-70
2021/10/14 08:10:35;;;;;;;;;54.75;44.25;;;;;12.08;75.50;102450.13;5000820;28;46370;-68
2021/10/14 08:13:02;;;;;;;;;53.75;43.75;;;;;12.18;75.65;102445.69;5000963;28;45346;-69
2021/10/14 08:15:28;;;;;;;;;58.75;45.75;;;;;12.30;75.38;102442.16;5000449;28;45439;-69
2021/10/14 08:17:53;;;;;;;;;60.50;46.00;;;;;12.42;75.05;102448.16;4994363;28;45768;-71
2021/10/14 08:20:19;;;;;;;;;58.00;43.50;;;;;12.55;74.62;102450.66;5000528;28;46257;-70
2021/10/14 08:22:44;;;;;;;;;57.25;46.25;;;;;12.64;74.47;102450.59;5000778;28;45289;-71
2021/10/14 08:25:12;;;;;;;;;55.50;45.00;;;;;12.71;74.23;102441.81;4997204;28;45312;-75
2021/10/14 08:27:38;;;;;;;;;61.50;46.50;;;;;12.79;73.70;102446.06;5000934;28;45395;-70
2021/10/14 08:30:05;;;;;;;;;51.00;43.00;;;;;12.87;73.68;102453.84;5000256;28;46490;-72
2021/10/14 08:32:31;;;;;;;;;57.75;41.75;;;;;12.96;73.59;102448.53;5000570;28;45844;-70
2021/10/14 08:34:57;;;;;;;;;46.00;39.25;;;;;13.03;73.05;102439.78;5000458;28;45500;-73
2021/10/14 08:37:23;;;;;;;;;58.75;46.50;;;;;13.14;73.17;102441.38;5000530;28;45428;-73
2021/10/14 08:39:50;;;;;;;;;60.25;44.50;;;;;13.21;72.60;102445.69;4980496;28;47122;-77
2021/10/14 08:42:16;;;;;;;;;54.50;41.25;;;;;13.31;72.52;102437.75;5000444;28;45283;-74
2021/10/14 08:44:41;;;;;;;;;43.25;39.75;;;;;13.39;71.91;102437.63;5000027;28;45374;-75
2021/10/14 08:47:07;;;;;;;;;51.25;39.00;;;;;13.42;71.32;102439.38;4999966;28;45512;-71
2021/10/14 08:49:33;;;;;;;;;53.75;43.25;;;;;13.46;71.12;102431.47;4999964;28;46036;-69
2021/10/14 08:51:59;;;;;;;;;49.75;40.25;;;;;13.57;71.23;102434.78;5000317;28;45358;-73
2021/10/14 08:54:24;;;;;;;;;53.75;41.25;;;;;13.69;70.91;102432.03;5000512;28;45346;-65
2021/10/14 08:56:50;;;;;;;;;59.50;44.50;;;;;13.81;70.24;102433.59;5000156;28;45540;-67
2021/10/14 08:59:20;;;;;;;;;56.75;43.50;;;;;13.86;70.07;102431.81;4999914;28;45382;-67
2021/10/14 09:02:07;;;;;;;;;58.00;47.00;;;;;13.97;69.85;102434.25;4999747;28;45286;-68
2021/10/14 09:04:38;;;;;;;;;55.50;44.75;;;;;14.13;69.68;102433.16;4991661;28;45538;-64
2021/10/14 09:07:14;;;;;;;;;56.75;41.25;;;;;14.31;69.73;102432.88;4999639;28;45241;-66
2021/10/14 09:09:41;;;;;;;;;57.00;42.50;;;;;14.47;68.92;102430.91;4999644;28;45275;-65
2021/10/14 09:12:09;;;;;;;;;56.75;42.50;;;;;14.57;68.51;102432.47;5000049;28;45455;-62
2021/10/14 09:14:56;;;;;;;;;57.25;44.00;;;;;14.74;68.50;102429.56;4999616;28;45374;-61
2021/10/14 09:17:44;;;;;;;;;54.50;43.00;;;;;14.99;68.02;102426.47;4996454;28;45661;-61
2021/10/14 09:20:36;;;;;;;;;55.25;43.00;;;;;15.16;67.51;102429.66;4989531;28;45384;-62
2021/10/14 09:23:04;;;;;;;;;57.50;43.00;;;;;15.23;66.00;102417.31;4997680;28;46038;-62
2021/10/14 09:25:35;;;;;;;;;57.50;42.50;;;;;15.29;66.00;102422.41;4998604;28;45402;-56
2021/10/14 09:28:10;;;;;;;;;51.00;41.00;;;;;15.39;65.96;102416.94;4999581;28;45563;-61
2021/10/14 09:30:52;;;;;;;;;52.75;41.25;;;;;15.60;65.11;102414.81;4990423;28;46343;-78
2021/10/14 09:33:43;;;;;;;;;52.75;41.25;;;;;15.69;65.01;102412.84;4999010;28;46039;-69
2021/10/14 09:36:26;;;;;;;;;53.50;42.75;;;;;15.72;64.74;102407.53;4999303;28;45476;-58
2021/10/14 09:38:56;;;;;;;;;53.75;41.00;;;;;15.76;64.95;102403.94;4999538;28;45235;-58
2021/10/14 09:41:24;;;;;;;;;48.75;38.00;;;;;15.86;62.99;102409.88;4998203;28;47271;-60
2021/10/14 09:43:52;;;;;;;;;48.50;39.00;;;;;15.95;64.02;102408.78;4996990;28;45361;-58
2021/10/14 09:46:36;;;;;;;;;46.25;37.75;;;;;16.10;62.71;102406.66;4980962;28;45348;-65
2021/10/14 09:49:04;;;;;;;;;46.00;34.75;;;;;16.47;61.99;102407.53;4996924;28;45472;-59
2021/10/14 09:51:30;;;;;;;;;45.25;35.25;;;;;17.49;62.17;102399.47;4981369;28;46106;-61
2021/10/14 09:53:57;;;;;;;;;42.00;33.75;;;;;17.91;59.06;102397.31;4999111;28;45230;-64
2021/10/14 09:56:23;;;;;;;;;53.75;37.50;;;;;17.91;59.45;102392.91;4989217;28;45357;-65
2021/10/14 09:58:48;;;;;;;;;50.00;37.25;;;;;17.93;58.66;102392.88;4998485;28;45352;-62
2021/10/14 10:01:13;;;;;;;;;42.50;36.25;;;;;17.93;58.16;102391.09;4998938;28;46267;-64
2021/10/14 10:03:39;;;;;;;;;42.25;36.50;;;;;18.24;57.93;102385.72;4998398;28;45275;-66
2021/10/14 10:06:07;;;;;;;;;46.50;35.00;;;;;18.68;57.36;102387.78;4999339;28;45369;-66
2021/10/14 10:08:42;;;;;;;;;30.00;24.00;;;;;18.95;54.21;102375.38;4998638;28;45468;-61
2021/10/14 10:11:11;;;;;;;;;27.50;24.25;;;;;19.63;56.80;102378.09;4998862;28;45292;-59
2021/10/14 10:13:39;;;;;;;;;18.00;15.75;;;;;20.88;53.41;102378.13;4998315;28;45302;-60
2021/10/14 10:16:11;;;;;;;;;16.25;9.75;;;;;21.10;53.10;102366.59;5000197;28;45308;-65
2021/10/14 10:18:39;;;;;;;;;16.00;14.25;;;;;20.84;50.23;102367.78;4990094;28;45630;-58
2021/10/14 10:21:09;;;;;;;;;11.75;11.00;;;;;20.60;50.15;102361.75;4993676;28;46350;-67
2021/10/14 10:23:44;;;;;;;;;13.00;12.00;;;;;20.73;50.09;102364.75;4995105;28;45370;-67
2021/10/14 10:26:35;;;;;;;;;13.25;10.50;;;;;20.78;49.67;102368.03;4998667;28;45241;-67
2021/10/14 10:29:03;;;;;;;;;12.00;7.00;;;;;20.87;48.25;102357.91;4989854;28;45449;-66
2021/10/14 10:31:53;;;;;;;;;8.75;8.00;;;;;20.88;48.14;102362.28;4998089;28;46157;-68
2021/10/14 10:37:33;;;;;;;;;9.00;7.25;;;;;23.60;46.15;102359.16;4998945;28;45369;-65
2021/10/14 10:40:11;;;;;;;;;6.00;5.00;;;;;23.12;41.92;102346.81;4998716;28;45360;-61
2021/10/14 10:42:41;;;;;;;;;7.50;5.00;;;;;23.06;43.15;102342.72;4998546;28;45353;-66
2021/10/14 10:45:12;;;;;;;;;10.50;10.50;;;;;24.14;44.19;102343.66;4988879;28;45274;-68
2021/10/14 10:47:40;;;;;;;;;10.00;8.25;;;;;23.84;35.80;102336.56;4992010;28;45488;-65
2021/10/14 10:50:14;;;;;;;;;11.75;4.75;;;;;23.25;37.13;102342.56;4998498;28;45389;-62
2021/10/14 10:52:43;;;;;;;;;9.75;8.50;;;;;24.56;40.92;102343.75;4997681;28;45248;-69
2021/10/14 10:55:40;;;;;;;;;14.75;11.25;;;;;25.11;38.08;102343.03;4997710;28;45408;-65
2021/10/14 10:58:08;;;;;;;;;12.25;12.00;;;;;24.50;38.69;102336.19;4985785;28;45364;-70
2021/10/14 11:00:35;;;;;;;;;13.75;11.00;;;;;24.13;38.55;102336.63;4999854;28;45415;-70
2021/10/14 11:03:20;;;;;;;;;19.25;15.75;;;;;23.85;38.71;102330.28;5001008;28;46149;-56
2021/10/14 11:05:50;;;;;;;;;22.75;21.00;;;;;23.50;40.49;102328.75;4999301;28;45666;-59
2021/10/14 11:08:23;;;;;;;;;22.00;20.50;;;;;23.87;37.55;102323.09;5001688;28;45347;-62
2021/10/14 11:10:51;;;;;;;;;21.75;16.50;;;;;24.32;36.97;102321.34;5001533;28;45453;-53
2021/10/14 11:13:17;;;;;;;;;19.00;18.00;;;;;23.83;37.89;102318.91;5001028;28;46150;-56